sensor_id;sensor_type;location;lat;lon;timestamp;P1;durP1;ratioP1;P2;durP2;ratioP2
5785;SDS011;2919;48.630;9.000;2022-11-15T00:01:43;4.43;;;2.03;;
5785;SDS011;2919;48.630;9.000;2022-11-15T00:04:08;15.60;;;3.37;;
5785;SDS011;2919;48.630;9.000;2022-11-15T00:06:35;4.60;;;1.97;;
5785;SDS011;2919;48.630;9.000;2022-11-15T00:09:01;7.03;;;3.20;;
5785;SDS011;2919;48.630;9.000;2022-11-15T00:11:27;4.17;;;1.70;;
5785;SDS011;2919;48.630;9.000;2022-11-15T00:13:56;2.77;;;1.80;;
5785;SDS011;2919;48.630;9.000;2022-11-15T00:16:22;2.43;;;1.60;;
5785;SDS011;2919;48.630;9.000;2022-11-15T00:18:48;2.50;;;1.50;;
5785;SDS011;2919;48.630;9.000;2022-11-15T00:21:15;2.50;;;1.40;;
5785;SDS011;2919;48.630;9.000;2022-11-15T00:23:41;4.80;;;2.60;;
5785;SDS011;2919;48.630;9.000;2022-11-15T00:26:06;4.33;;;1.83;;
5785;SDS011;2919;48.630;9.000;2022-11-15T00:28:35;6.87;;;1.97;;
5785;SDS011;2919;48.630;9.000;2022-11-15T00:31:04;4.10;;;2.23;;
5785;SDS011;2919;48.630;9.000;2022-11-15T00:33:32;5.13;;;2.00;;
5785;SDS011;2919;48.630;9.000;2022-11-15T00:36:05;3.43;;;2.00;;
5785;SDS011;2919;48.630;9.000;2022-11-15T00:38:34;3.27;;;1.60;;
5785;SDS011;2919;48.630;9.000;2022-11-15T00:41:02;3.50;;;2.27;;
5785;SDS011;2919;48.630;9.000;2022-11-15T00:43:28;4.80;;;1.97;;
5785;SDS011;2919;48.630;9.000;2022-11-15T00:45:54;4.30;;;2.33;;
5785;SDS011;2919;48.630;9.000;2022-11-15T00:48:20;6.73;;;2.00;;
5785;SDS011;2919;48.630;9.000;2022-11-15T00:50:46;3.80;;;1.77;;
5785;SDS011;2919;48.630;9.000;2022-11-15T00:53:12;3.13;;;2.10;;
5785;SDS011;2919;48.630;9.000;2022-11-15T00:55:37;3.17;;;1.67;;
5785;SDS011;2919;48.630;9.000;2022-11-15T00:58:03;3.57;;;1.80;;
5785;SDS011;2919;48.630;9.000;2022-11-15T01:00:28;5.37;;;2.73;;
5785;SDS011;2919;48.630;9.000;2022-11-15T01:02:54;3.37;;;1.50;;
5785;SDS011;2919;48.630;9.000;2022-11-15T01:05:20;3.50;;;2.07;;
5785;SDS011;2919;48.630;9.000;2022-11-15T01:07:46;3.00;;;1.40;;
5785;SDS011;2919;48.630;9.000;2022-11-15T01:10:11;3.00;;;1.97;;
5785;SDS011;2919;48.630;9.000;2022-11-15T01:12:37;4.60;;;2.30;;
5785;SDS011;2919;48.630;9.000;2022-11-15T01:15:03;5.00;;;1.83;;
5785;SDS011;2919;48.630;9.000;2022-11-15T01:17:29;4.77;;;1.40;;
5785;SDS011;2919;48.630;9.000;2022-11-15T01:19:56;3.87;;;1.60;;
5785;SDS011;2919;48.630;9.000;2022-11-15T01:22:21;4.23;;;1.60;;
5785;SDS011;2919;48.630;9.000;2022-11-15T01:24:48;3.30;;;1.43;;
5785;SDS011;2919;48.630;9.000;2022-11-15T01:27:15;4.40;;;2.33;;
5785;SDS011;2919;48.630;9.000;2022-11-15T01:29:40;7.43;;;2.17;;
5785;SDS011;2919;48.630;9.000;2022-11-15T01:32:06;5.77;;;2.13;;
5785;SDS011;2919;48.630;9.000;2022-11-15T01:34:31;6.17;;;1.90;;
5785;SDS011;2919;48.630;9.000;2022-11-15T01:36:57;6.80;;;2.17;;
5785;SDS011;2919;48.630;9.000;2022-11-15T01:39:23;4.90;;;1.70;;
5785;SDS011;2919;48.630;9.000;2022-11-15T01:41:49;3.10;;;1.73;;
5785;SDS011;2919;48.630;9.000;2022-11-15T01:46:59;3.53;;;1.47;;
5785;SDS011;2919;48.630;9.000;2022-11-15T01:49:57;2.60;;;1.50;;
5785;SDS011;2919;48.630;9.000;2022-11-15T01:52:26;3.70;;;1.83;;
5785;SDS011;2919;48.630;9.000;2022-11-15T01:55:08;3.60;;;1.60;;
5785;SDS011;2919;48.630;9.000;2022-11-15T01:57:37;3.93;;;1.83;;
5785;SDS011;2919;48.630;9.000;2022-11-15T02:00:05;2.57;;;1.60;;
5785;SDS011;2919;48.630;9.000;2022-11-15T02:02:31;3.53;;;2.13;;
5785;SDS011;2919;48.630;9.000;2022-11-15T02:04:58;5.00;;;1.83;;
5785;SDS011;2919;48.630;9.000;2022-11-15T02:07:23;3.80;;;2.00;;
5785;SDS011;2919;48.630;9.000;2022-11-15T02:09:50;2.70;;;1.43;;
5785;SDS011;2919;48.630;9.000;2022-11-15T02:12:18;4.63;;;2.00;;
5785;SDS011;2919;48.630;9.000;2022-11-15T02:14:47;4.10;;;1.70;;
5785;SDS011;2919;48.630;9.000;2022-11-15T02:20:07;3.03;;;1.60;;
5785;SDS011;2919;48.630;9.000;2022-11-15T02:34:11;9.40;;;1.90;;
5785;SDS011;2919;48.630;9.000;2022-11-15T02:42:11;4.60;;;2.67;;
5785;SDS011;2919;48.630;9.000;2022-11-15T02:44:59;2.60;;;1.57;;
5785;SDS011;2919;48.630;9.000;2022-11-15T02:47:30;3.70;;;1.60;;
5785;SDS011;2919;48.630;9.000;2022-11-15T02:50:05;3.07;;;1.60;;
5785;SDS011;2919;48.630;9.000;2022-11-15T02:52:33;4.03;;;1.53;;
5785;SDS011;2919;48.630;9.000;2022-11-15T02:55:00;3.87;;;1.90;;
5785;SDS011;2919;48.630;9.000;2022-11-15T03:00:17;5.90;;;1.60;;
5785;SDS011;2919;48.630;9.000;2022-11-15T03:08:29;3.57;;;1.50;;
5785;SDS011;2919;48.630;9.000;2022-11-15T03:16:11;3.07;;;1.83;;
5785;SDS011;2919;48.630;9.000;2022-11-15T03:18:41;2.57;;;1.40;;
5785;SDS011;2919;48.630;9.000;2022-11-15T03:21:10;3.63;;;1.20;;
5785;SDS011;2919;48.630;9.000;2022-11-15T03:23:38;2.77;;;1.40;;
5785;SDS011;2919;48.630;9.000;2022-11-15T03:26:05;2.23;;;1.27;;
5785;SDS011;2919;48.630;9.000;2022-11-15T03:28:36;2.17;;;1.53;;
5785;SDS011;2919;48.630;9.000;2022-11-15T03:31:23;2.90;;;1.47;;
5785;SDS011;2919;48.630;9.000;2022-11-15T03:34:15;3.30;;;1.47;;
5785;SDS011;2919;48.630;9.000;2022-11-15T03:36:56;1.70;;;1.10;;
5785;SDS011;2919;48.630;9.000;2022-11-15T03:39:22;2.30;;;1.30;;
5785;SDS011;2919;48.630;9.000;2022-11-15T03:42:03;23.97;;;1.50;;
5785;SDS011;2919;48.630;9.000;2022-11-15T03:44:46;6.73;;;2.43;;
5785;SDS011;2919;48.630;9.000;2022-11-15T03:47:33;3.00;;;1.50;;
5785;SDS011;2919;48.630;9.000;2022-11-15T03:50:13;3.57;;;1.53;;
5785;SDS011;2919;48.630;9.000;2022-11-15T03:52:44;3.47;;;2.27;;
5785;SDS011;2919;48.630;9.000;2022-11-15T03:55:12;3.30;;;1.90;;
5785;SDS011;2919;48.630;9.000;2022-11-15T03:57:39;1.80;;;1.33;;
5785;SDS011;2919;48.630;9.000;2022-11-15T04:00:05;5.00;;;2.17;;
5785;SDS011;2919;48.630;9.000;2022-11-15T04:02:31;2.93;;;1.43;;
5785;SDS011;2919;48.630;9.000;2022-11-15T04:04:57;2.83;;;2.00;;
5785;SDS011;2919;48.630;9.000;2022-11-15T04:07:22;2.80;;;1.50;;
5785;SDS011;2919;48.630;9.000;2022-11-15T04:09:48;6.90;;;2.40;;
5785;SDS011;2919;48.630;9.000;2022-11-15T04:12:32;3.27;;;1.50;;
5785;SDS011;2919;48.630;9.000;2022-11-15T04:15:04;3.10;;;1.43;;
5785;SDS011;2919;48.630;9.000;2022-11-15T04:17:39;6.10;;;1.73;;
5785;SDS011;2919;48.630;9.000;2022-11-15T04:20:12;3.73;;;1.57;;
5785;SDS011;2919;48.630;9.000;2022-11-15T04:23:02;2.80;;;1.40;;
5785;SDS011;2919;48.630;9.000;2022-11-15T04:25:52;4.30;;;1.17;;
5785;SDS011;2919;48.630;9.000;2022-11-15T04:28:19;3.60;;;1.70;;
5785;SDS011;2919;48.630;9.000;2022-11-15T04:30:45;3.00;;;1.50;;
5785;SDS011;2919;48.630;9.000;2022-11-15T04:33:11;2.37;;;1.57;;
5785;SDS011;2919;48.630;9.000;2022-11-15T04:35:36;4.33;;;1.53;;
5785;SDS011;2919;48.630;9.000;2022-11-15T04:38:03;3.40;;;1.80;;
5785;SDS011;2919;48.630;9.000;2022-11-15T04:40:30;2.03;;;1.13;;
5785;SDS011;2919;48.630;9.000;2022-11-15T04:42:56;3.50;;;1.63;;
5785;SDS011;2919;48.630;9.000;2022-11-15T04:45:21;4.63;;;1.60;;
5785;SDS011;2919;48.630;9.000;2022-11-15T04:47:47;2.63;;;1.67;;
5785;SDS011;2919;48.630;9.000;2022-11-15T04:50:13;2.30;;;1.40;;
5785;SDS011;2919;48.630;9.000;2022-11-15T04:52:43;2.80;;;1.50;;
5785;SDS011;2919;48.630;9.000;2022-11-15T04:55:16;4.27;;;2.57;;
5785;SDS011;2919;48.630;9.000;2022-11-15T04:57:41;3.80;;;2.60;;
5785;SDS011;2919;48.630;9.000;2022-11-15T05:00:08;6.63;;;3.23;;
5785;SDS011;2919;48.630;9.000;2022-11-15T05:02:36;7.37;;;3.80;;
5785;SDS011;2919;48.630;9.000;2022-11-15T05:05:20;12.07;;;4.50;;
5785;SDS011;2919;48.630;9.000;2022-11-15T05:07:46;4.87;;;4.00;;
5785;SDS011;2919;48.630;9.000;2022-11-15T05:10:11;11.13;;;3.73;;
5785;SDS011;2919;48.630;9.000;2022-11-15T05:12:37;13.97;;;4.40;;
5785;SDS011;2919;48.630;9.000;2022-11-15T05:15:03;8.60;;;4.50;;
5785;SDS011;2919;48.630;9.000;2022-11-15T05:17:29;7.50;;;3.53;;
5785;SDS011;2919;48.630;9.000;2022-11-15T05:19:54;6.57;;;2.97;;
5785;SDS011;2919;48.630;9.000;2022-11-15T05:22:20;7.13;;;3.13;;
5785;SDS011;2919;48.630;9.000;2022-11-15T05:24:46;6.50;;;2.83;;
5785;SDS011;2919;48.630;9.000;2022-11-15T05:27:12;7.90;;;3.30;;
5785;SDS011;2919;48.630;9.000;2022-11-15T05:29:37;8.73;;;3.67;;
5785;SDS011;2919;48.630;9.000;2022-11-15T05:32:04;4.80;;;2.87;;
5785;SDS011;2919;48.630;9.000;2022-11-15T05:34:31;4.47;;;2.53;;
5785;SDS011;2919;48.630;9.000;2022-11-15T05:36:57;5.87;;;3.27;;
5785;SDS011;2919;48.630;9.000;2022-11-15T05:39:23;3.87;;;2.00;;
5785;SDS011;2919;48.630;9.000;2022-11-15T05:41:52;7.30;;;3.47;;
5785;SDS011;2919;48.630;9.000;2022-11-15T05:44:26;4.70;;;2.60;;
5785;SDS011;2919;48.630;9.000;2022-11-15T05:46:53;10.33;;;2.90;;
5785;SDS011;2919;48.630;9.000;2022-11-15T05:49:21;4.50;;;3.00;;
5785;SDS011;2919;48.630;9.000;2022-11-15T05:51:49;4.53;;;2.33;;
5785;SDS011;2919;48.630;9.000;2022-11-15T05:54:18;2.87;;;1.83;;
5785;SDS011;2919;48.630;9.000;2022-11-15T05:56:46;4.73;;;2.43;;
5785;SDS011;2919;48.630;9.000;2022-11-15T05:59:11;3.03;;;1.93;;
5785;SDS011;2919;48.630;9.000;2022-11-15T06:01:37;4.47;;;2.13;;
5785;SDS011;2919;48.630;9.000;2022-11-15T06:04:04;7.93;;;3.00;;
5785;SDS011;2919;48.630;9.000;2022-11-15T06:06:30;6.43;;;2.70;;
5785;SDS011;2919;48.630;9.000;2022-11-15T06:08:55;4.50;;;2.10;;
5785;SDS011;2919;48.630;9.000;2022-11-15T06:11:21;5.67;;;2.30;;
5785;SDS011;2919;48.630;9.000;2022-11-15T06:13:47;6.30;;;2.87;;
5785;SDS011;2919;48.630;9.000;2022-11-15T06:16:12;6.70;;;2.87;;
5785;SDS011;2919;48.630;9.000;2022-11-15T06:18:38;5.00;;;2.73;;
5785;SDS011;2919;48.630;9.000;2022-11-15T06:21:04;4.77;;;2.23;;
5785;SDS011;2919;48.630;9.000;2022-11-15T06:23:33;5.93;;;3.10;;
5785;SDS011;2919;48.630;9.000;2022-11-15T06:26:00;9.63;;;3.27;;
5785;SDS011;2919;48.630;9.000;2022-11-15T06:28:30;4.10;;;1.90;;
5785;SDS011;2919;48.630;9.000;2022-11-15T06:31:01;6.50;;;2.50;;
5785;SDS011;2919;48.630;9.000;2022-11-15T06:33:28;5.87;;;2.67;;
5785;SDS011;2919;48.630;9.000;2022-11-15T06:35:54;4.57;;;1.87;;
5785;SDS011;2919;48.630;9.000;2022-11-15T06:38:19;4.70;;;2.80;;
5785;SDS011;2919;48.630;9.000;2022-11-15T06:40:45;3.80;;;2.10;;
5785;SDS011;2919;48.630;9.000;2022-11-15T06:43:10;5.97;;;3.37;;
5785;SDS011;2919;48.630;9.000;2022-11-15T06:45:36;6.07;;;3.40;;
5785;SDS011;2919;48.630;9.000;2022-11-15T06:48:02;7.63;;;4.00;;
5785;SDS011;2919;48.630;9.000;2022-11-15T06:50:27;9.83;;;3.93;;
5785;SDS011;2919;48.630;9.000;2022-11-15T06:52:53;14.13;;;4.63;;
5785;SDS011;2919;48.630;9.000;2022-11-15T06:55:19;15.53;;;5.83;;
5785;SDS011;2919;48.630;9.000;2022-11-15T06:57:49;8.90;;;4.27;;
5785;SDS011;2919;48.630;9.000;2022-11-15T07:00:16;4.70;;;2.70;;
5785;SDS011;2919;48.630;9.000;2022-11-15T07:02:43;5.30;;;3.27;;
5785;SDS011;2919;48.630;9.000;2022-11-15T07:05:09;5.80;;;3.33;;
5785;SDS011;2919;48.630;9.000;2022-11-15T07:07:35;8.30;;;3.37;;
5785;SDS011;2919;48.630;9.000;2022-11-15T07:10:00;4.67;;;2.57;;
5785;SDS011;2919;48.630;9.000;2022-11-15T07:12:26;12.67;;;2.70;;
5785;SDS011;2919;48.630;9.000;2022-11-15T07:14:51;7.07;;;2.70;;
5785;SDS011;2919;48.630;9.000;2022-11-15T07:17:17;4.00;;;1.77;;
5785;SDS011;2919;48.630;9.000;2022-11-15T07:19:43;4.37;;;2.33;;
5785;SDS011;2919;48.630;9.000;2022-11-15T07:22:08;12.87;;;3.27;;
5785;SDS011;2919;48.630;9.000;2022-11-15T07:24:34;4.87;;;2.77;;
5785;SDS011;2919;48.630;9.000;2022-11-15T07:26:59;12.93;;;2.40;;
5785;SDS011;2919;48.630;9.000;2022-11-15T07:29:25;3.80;;;2.10;;
5785;SDS011;2919;48.630;9.000;2022-11-15T07:31:50;4.90;;;2.47;;
5785;SDS011;2919;48.630;9.000;2022-11-15T07:34:16;12.20;;;3.10;;
5785;SDS011;2919;48.630;9.000;2022-11-15T07:36:42;5.83;;;2.83;;
5785;SDS011;2919;48.630;9.000;2022-11-15T07:39:07;7.50;;;3.07;;
5785;SDS011;2919;48.630;9.000;2022-11-15T07:41:33;5.87;;;2.33;;
5785;SDS011;2919;48.630;9.000;2022-11-15T07:43:59;4.47;;;2.60;;
5785;SDS011;2919;48.630;9.000;2022-11-15T07:46:26;4.33;;;1.93;;
5785;SDS011;2919;48.630;9.000;2022-11-15T07:48:52;3.50;;;2.00;;
5785;SDS011;2919;48.630;9.000;2022-11-15T07:51:17;4.73;;;1.83;;
5785;SDS011;2919;48.630;9.000;2022-11-15T07:53:43;4.43;;;1.90;;
5785;SDS011;2919;48.630;9.000;2022-11-15T07:56:09;3.20;;;1.60;;
5785;SDS011;2919;48.630;9.000;2022-11-15T07:58:35;5.53;;;1.80;;
5785;SDS011;2919;48.630;9.000;2022-11-15T08:01:04;4.53;;;2.10;;
5785;SDS011;2919;48.630;9.000;2022-11-15T08:03:31;3.53;;;1.67;;
5785;SDS011;2919;48.630;9.000;2022-11-15T08:05:57;4.27;;;1.40;;
5785;SDS011;2919;48.630;9.000;2022-11-15T08:08:22;3.30;;;1.33;;
5785;SDS011;2919;48.630;9.000;2022-11-15T08:10:48;2.23;;;1.57;;
5785;SDS011;2919;48.630;9.000;2022-11-15T08:13:14;1.87;;;0.90;;
5785;SDS011;2919;48.630;9.000;2022-11-15T08:15:40;3.67;;;0.93;;
5785;SDS011;2919;48.630;9.000;2022-11-15T08:18:09;1.80;;;1.10;;
5785;SDS011;2919;48.630;9.000;2022-11-15T08:20:37;3.33;;;1.57;;
5785;SDS011;2919;48.630;9.000;2022-11-15T08:23:03;2.70;;;1.60;;
5785;SDS011;2919;48.630;9.000;2022-11-15T08:25:30;1.90;;;1.27;;
5785;SDS011;2919;48.630;9.000;2022-11-15T08:27:58;2.83;;;1.43;;
5785;SDS011;2919;48.630;9.000;2022-11-15T08:30:25;2.70;;;1.50;;
5785;SDS011;2919;48.630;9.000;2022-11-15T08:32:52;3.83;;;1.67;;
5785;SDS011;2919;48.630;9.000;2022-11-15T08:35:19;6.33;;;2.57;;
5785;SDS011;2919;48.630;9.000;2022-11-15T08:37:45;2.80;;;1.60;;
5785;SDS011;2919;48.630;9.000;2022-11-15T08:40:12;3.30;;;1.80;;
5785;SDS011;2919;48.630;9.000;2022-11-15T08:42:39;5.10;;;2.53;;
5785;SDS011;2919;48.630;9.000;2022-11-15T08:45:04;8.57;;;3.40;;
5785;SDS011;2919;48.630;9.000;2022-11-15T08:47:31;9.60;;;4.20;;
5785;SDS011;2919;48.630;9.000;2022-11-15T08:49:56;7.83;;;3.20;;
5785;SDS011;2919;48.630;9.000;2022-11-15T08:52:22;3.00;;;1.67;;
5785;SDS011;2919;48.630;9.000;2022-11-15T08:54:48;6.77;;;2.00;;
5785;SDS011;2919;48.630;9.000;2022-11-15T08:57:13;4.93;;;1.73;;
5785;SDS011;2919;48.630;9.000;2022-11-15T08:59:39;4.37;;;1.60;;
5785;SDS011;2919;48.630;9.000;2022-11-15T09:02:05;3.13;;;1.30;;
5785;SDS011;2919;48.630;9.000;2022-11-15T09:04:31;2.47;;;1.20;;
5785;SDS011;2919;48.630;9.000;2022-11-15T09:06:57;7.20;;;1.57;;
5785;SDS011;2919;48.630;9.000;2022-11-15T09:09:23;2.10;;;1.20;;
5785;SDS011;2919;48.630;9.000;2022-11-15T09:11:48;2.40;;;1.03;;
5785;SDS011;2919;48.630;9.000;2022-11-15T09:14:15;3.77;;;1.70;;
5785;SDS011;2919;48.630;9.000;2022-11-15T09:16:41;2.60;;;1.03;;
5785;SDS011;2919;48.630;9.000;2022-11-15T09:19:06;3.10;;;1.43;;
5785;SDS011;2919;48.630;9.000;2022-11-15T09:21:32;3.80;;;1.93;;
5785;SDS011;2919;48.630;9.000;2022-11-15T09:23:58;3.00;;;1.30;;
5785;SDS011;2919;48.630;9.000;2022-11-15T09:26:23;4.50;;;1.90;;
5785;SDS011;2919;48.630;9.000;2022-11-15T09:28:50;4.60;;;2.27;;
5785;SDS011;2919;48.630;9.000;2022-11-15T09:31:15;3.77;;;1.57;;
5785;SDS011;2919;48.630;9.000;2022-11-15T09:33:44;3.50;;;1.30;;
5785;SDS011;2919;48.630;9.000;2022-11-15T09:36:11;2.00;;;1.10;;
5785;SDS011;2919;48.630;9.000;2022-11-15T09:38:36;4.30;;;1.20;;
5785;SDS011;2919;48.630;9.000;2022-11-15T09:49:02;2.73;;;1.67;;
5785;SDS011;2919;48.630;9.000;2022-11-15T09:54:09;2.00;;;1.10;;
5785;SDS011;2919;48.630;9.000;2022-11-15T09:56:56;2.43;;;1.50;;
5785;SDS011;2919;48.630;9.000;2022-11-15T10:02:19;3.27;;;1.73;;
5785;SDS011;2919;48.630;9.000;2022-11-15T10:04:54;2.33;;;1.30;;
5785;SDS011;2919;48.630;9.000;2022-11-15T10:07:24;6.53;;;1.77;;
5785;SDS011;2919;48.630;9.000;2022-11-15T10:12:42;6.20;;;1.70;;
5785;SDS011;2919;48.630;9.000;2022-11-15T10:15:14;6.80;;;1.60;;
5785;SDS011;2919;48.630;9.000;2022-11-15T10:20:58;2.00;;;1.20;;
5785;SDS011;2919;48.630;9.000;2022-11-15T10:23:25;2.30;;;1.00;;
5785;SDS011;2919;48.630;9.000;2022-11-15T10:26:00;1.50;;;0.80;;
5785;SDS011;2919;48.630;9.000;2022-11-15T10:28:27;4.40;;;1.27;;
5785;SDS011;2919;48.630;9.000;2022-11-15T10:30:55;2.07;;;0.87;;
5785;SDS011;2919;48.630;9.000;2022-11-15T10:43:41;1.40;;;0.80;;
5785;SDS011;2919;48.630;9.000;2022-11-15T10:48:46;3.43;;;1.10;;
5785;SDS011;2919;48.630;9.000;2022-11-15T10:51:22;2.30;;;1.23;;
5785;SDS011;2919;48.630;9.000;2022-11-15T10:53:54;3.37;;;1.30;;
5785;SDS011;2919;48.630;9.000;2022-11-15T10:56:22;3.00;;;1.07;;
5785;SDS011;2919;48.630;9.000;2022-11-15T10:58:51;1.60;;;0.60;;
5785;SDS011;2919;48.630;9.000;2022-11-15T11:01:22;2.63;;;0.80;;
5785;SDS011;2919;48.630;9.000;2022-11-15T11:03:58;2.63;;;1.00;;
5785;SDS011;2919;48.630;9.000;2022-11-15T11:06:24;4.20;;;1.20;;
5785;SDS011;2919;48.630;9.000;2022-11-15T11:09:00;2.60;;;0.90;;
5785;SDS011;2919;48.630;9.000;2022-11-15T11:11:47;3.33;;;1.70;;
5785;SDS011;2919;48.630;9.000;2022-11-15T11:16:49;1.97;;;1.03;;
5785;SDS011;2919;48.630;9.000;2022-11-15T11:25:07;2.77;;;1.17;;
5785;SDS011;2919;48.630;9.000;2022-11-15T11:38:28;2.53;;;1.07;;
5785;SDS011;2919;48.630;9.000;2022-11-15T11:49:29;3.53;;;0.90;;
5785;SDS011;2919;48.630;9.000;2022-11-15T11:57:28;1.40;;;0.80;;
5785;SDS011;2919;48.630;9.000;2022-11-15T11:59:58;3.37;;;1.43;;
5785;SDS011;2919;48.630;9.000;2022-11-15T12:07:45;3.57;;;1.17;;
5785;SDS011;2919;48.630;9.000;2022-11-15T12:10:24;2.10;;;1.20;;
5785;SDS011;2919;48.630;9.000;2022-11-15T12:13:04;5.30;;;0.93;;
5785;SDS011;2919;48.630;9.000;2022-11-15T12:15:50;1.97;;;0.97;;
5785;SDS011;2919;48.630;9.000;2022-11-15T12:18:21;2.33;;;0.97;;
5785;SDS011;2919;48.630;9.000;2022-11-15T12:21:14;2.20;;;1.10;;
5785;SDS011;2919;48.630;9.000;2022-11-15T12:23:43;2.27;;;1.00;;
5785;SDS011;2919;48.630;9.000;2022-11-15T12:26:21;2.57;;;0.90;;
5785;SDS011;2919;48.630;9.000;2022-11-15T12:28:55;2.03;;;0.67;;
5785;SDS011;2919;48.630;9.000;2022-11-15T12:36:46;2.93;;;1.30;;
5785;SDS011;2919;48.630;9.000;2022-11-15T12:39:13;3.10;;;1.50;;
5785;SDS011;2919;48.630;9.000;2022-11-15T13:10:47;3.13;;;1.40;;
5785;SDS011;2919;48.630;9.000;2022-11-15T13:13:01;4.27;;;1.53;;
5785;SDS011;2919;48.630;9.000;2022-11-15T13:15:36;15.23;;;5.73;;
5785;SDS011;2919;48.630;9.000;2022-11-15T13:20:49;2.93;;;1.17;;
5785;SDS011;2919;48.630;9.000;2022-11-15T13:23:15;2.47;;;0.70;;
5785;SDS011;2919;48.630;9.000;2022-11-15T13:29:04;4.00;;;1.20;;
5785;SDS011;2919;48.630;9.000;2022-11-15T13:33:50;1.50;;;0.90;;
5785;SDS011;2919;48.630;9.000;2022-11-15T13:36:26;1.70;;;0.80;;
5785;SDS011;2919;48.630;9.000;2022-11-15T13:38:55;1.93;;;0.97;;
5785;SDS011;2919;48.630;9.000;2022-11-15T13:41:44;2.13;;;1.00;;
5785;SDS011;2919;48.630;9.000;2022-11-15T13:44:18;1.60;;;0.90;;
5785;SDS011;2919;48.630;9.000;2022-11-15T13:47:12;4.30;;;1.20;;
5785;SDS011;2919;48.630;9.000;2022-11-15T13:49:39;1.40;;;0.80;;
5785;SDS011;2919;48.630;9.000;2022-11-15T13:52:06;5.27;;;1.20;;
5785;SDS011;2919;48.630;9.000;2022-11-15T13:54:47;4.60;;;1.13;;
5785;SDS011;2919;48.630;9.000;2022-11-15T13:59:48;3.90;;;1.23;;
5785;SDS011;2919;48.630;9.000;2022-11-15T14:02:21;2.73;;;1.07;;
5785;SDS011;2919;48.630;9.000;2022-11-15T14:04:53;3.30;;;1.50;;
5785;SDS011;2919;48.630;9.000;2022-11-15T14:07:23;2.67;;;1.40;;
5785;SDS011;2919;48.630;9.000;2022-11-15T14:09:50;13.43;;;1.33;;
5785;SDS011;2919;48.630;9.000;2022-11-15T14:14:59;2.47;;;1.20;;
5785;SDS011;2919;48.630;9.000;2022-11-15T14:19:55;5.33;;;1.17;;
5785;SDS011;2919;48.630;9.000;2022-11-15T14:22:26;1.90;;;0.90;;
5785;SDS011;2919;48.630;9.000;2022-11-15T14:27:42;3.80;;;1.50;;
5785;SDS011;2919;48.630;9.000;2022-11-15T14:30:13;4.03;;;1.87;;
5785;SDS011;2919;48.630;9.000;2022-11-15T14:35:18;3.57;;;1.47;;
5785;SDS011;2919;48.630;9.000;2022-11-15T14:37:45;2.67;;;1.70;;
5785;SDS011;2919;48.630;9.000;2022-11-15T14:40:13;2.13;;;1.20;;
5785;SDS011;2919;48.630;9.000;2022-11-15T14:42:44;2.07;;;1.20;;
5785;SDS011;2919;48.630;9.000;2022-11-15T14:47:39;11.23;;;2.10;;
5785;SDS011;2919;48.630;9.000;2022-11-15T14:50:05;4.17;;;2.50;;
5785;SDS011;2919;48.630;9.000;2022-11-15T14:52:32;2.87;;;1.50;;
5785;SDS011;2919;48.630;9.000;2022-11-15T14:55:02;2.70;;;1.30;;
5785;SDS011;2919;48.630;9.000;2022-11-15T14:57:34;3.00;;;1.20;;
5785;SDS011;2919;48.630;9.000;2022-11-15T14:59:59;2.53;;;1.30;;
5785;SDS011;2919;48.630;9.000;2022-11-15T15:02:26;2.97;;;1.00;;
5785;SDS011;2919;48.630;9.000;2022-11-15T15:04:52;2.43;;;1.40;;
5785;SDS011;2919;48.630;9.000;2022-11-15T15:07:18;3.70;;;1.70;;
5785;SDS011;2919;48.630;9.000;2022-11-15T15:09:44;4.37;;;1.67;;
5785;SDS011;2919;48.630;9.000;2022-11-15T15:12:14;3.27;;;1.53;;
5785;SDS011;2919;48.630;9.000;2022-11-15T15:14:42;2.30;;;1.47;;
5785;SDS011;2919;48.630;9.000;2022-11-15T15:17:07;5.80;;;1.63;;
5785;SDS011;2919;48.630;9.000;2022-11-15T15:19:33;10.30;;;1.83;;
5785;SDS011;2919;48.630;9.000;2022-11-15T15:21:58;3.73;;;1.50;;
5785;SDS011;2919;48.630;9.000;2022-11-15T15:24:24;4.17;;;2.23;;
5785;SDS011;2919;48.630;9.000;2022-11-15T15:26:50;2.53;;;1.60;;
5785;SDS011;2919;48.630;9.000;2022-11-15T15:29:15;7.67;;;2.27;;
5785;SDS011;2919;48.630;9.000;2022-11-15T15:31:41;4.43;;;1.87;;
5785;SDS011;2919;48.630;9.000;2022-11-15T15:34:06;5.80;;;1.93;;
5785;SDS011;2919;48.630;9.000;2022-11-15T15:36:32;5.23;;;2.67;;
5785;SDS011;2919;48.630;9.000;2022-11-15T15:38:57;6.97;;;3.00;;
5785;SDS011;2919;48.630;9.000;2022-11-15T15:41:23;3.53;;;1.53;;
5785;SDS011;2919;48.630;9.000;2022-11-15T15:43:49;2.90;;;1.73;;
5785;SDS011;2919;48.630;9.000;2022-11-15T15:46:15;4.67;;;1.20;;
5785;SDS011;2919;48.630;9.000;2022-11-15T15:48:43;4.27;;;1.90;;
5785;SDS011;2919;48.630;9.000;2022-11-15T15:51:10;1.73;;;1.03;;
5785;SDS011;2919;48.630;9.000;2022-11-15T15:53:36;2.30;;;1.10;;
5785;SDS011;2919;48.630;9.000;2022-11-15T15:56:02;1.40;;;0.70;;
5785;SDS011;2919;48.630;9.000;2022-11-15T15:58:28;2.20;;;1.60;;
5785;SDS011;2919;48.630;9.000;2022-11-15T16:00:54;2.97;;;1.43;;
5785;SDS011;2919;48.630;9.000;2022-11-15T16:03:19;2.17;;;1.10;;
5785;SDS011;2919;48.630;9.000;2022-11-15T16:05:45;2.57;;;1.37;;
5785;SDS011;2919;48.630;9.000;2022-11-15T16:08:17;2.03;;;1.27;;
5785;SDS011;2919;48.630;9.000;2022-11-15T16:10:44;2.57;;;1.70;;
5785;SDS011;2919;48.630;9.000;2022-11-15T16:13:10;4.03;;;1.43;;
5785;SDS011;2919;48.630;9.000;2022-11-15T16:15:36;1.70;;;1.10;;
5785;SDS011;2919;48.630;9.000;2022-11-15T16:18:02;2.47;;;1.73;;
5785;SDS011;2919;48.630;9.000;2022-11-15T16:23:08;2.93;;;1.60;;
5785;SDS011;2919;48.630;9.000;2022-11-15T16:28:15;2.73;;;1.53;;
5785;SDS011;2919;48.630;9.000;2022-11-15T16:30:46;4.83;;;2.30;;
5785;SDS011;2919;48.630;9.000;2022-11-15T16:33:11;3.27;;;1.30;;
5785;SDS011;2919;48.630;9.000;2022-11-15T16:35:37;2.20;;;1.47;;
5785;SDS011;2919;48.630;9.000;2022-11-15T16:38:03;3.40;;;1.90;;
5785;SDS011;2919;48.630;9.000;2022-11-15T16:40:29;3.47;;;1.57;;
5785;SDS011;2919;48.630;9.000;2022-11-15T16:42:57;3.33;;;2.07;;
5785;SDS011;2919;48.630;9.000;2022-11-15T16:45:24;4.40;;;1.70;;
5785;SDS011;2919;48.630;9.000;2022-11-15T16:47:53;6.67;;;2.73;;
5785;SDS011;2919;48.630;9.000;2022-11-15T16:50:21;5.87;;;2.13;;
5785;SDS011;2919;48.630;9.000;2022-11-15T16:52:52;3.80;;;2.13;;
5785;SDS011;2919;48.630;9.000;2022-11-15T16:55:19;4.37;;;2.40;;
5785;SDS011;2919;48.630;9.000;2022-11-15T16:57:45;4.33;;;2.80;;
5785;SDS011;2919;48.630;9.000;2022-11-15T17:00:12;5.63;;;2.80;;
5785;SDS011;2919;48.630;9.000;2022-11-15T17:02:41;2.93;;;1.93;;
5785;SDS011;2919;48.630;9.000;2022-11-15T17:05:08;6.83;;;2.20;;
5785;SDS011;2919;48.630;9.000;2022-11-15T17:07:34;3.93;;;2.60;;
5785;SDS011;2919;48.630;9.000;2022-11-15T17:10:00;3.90;;;2.53;;
5785;SDS011;2919;48.630;9.000;2022-11-15T17:12:25;3.03;;;2.27;;
5785;SDS011;2919;48.630;9.000;2022-11-15T17:14:51;4.37;;;2.40;;
5785;SDS011;2919;48.630;9.000;2022-11-15T17:17:16;9.10;;;2.70;;
5785;SDS011;2919;48.630;9.000;2022-11-15T17:19:42;5.93;;;2.50;;
5785;SDS011;2919;48.630;9.000;2022-11-15T17:22:07;5.10;;;2.90;;
5785;SDS011;2919;48.630;9.000;2022-11-15T17:24:33;3.63;;;2.03;;
5785;SDS011;2919;48.630;9.000;2022-11-15T17:26:59;3.97;;;1.77;;
5785;SDS011;2919;48.630;9.000;2022-11-15T17:29:24;3.77;;;2.20;;
5785;SDS011;2919;48.630;9.000;2022-11-15T17:31:50;8.60;;;1.67;;
5785;SDS011;2919;48.630;9.000;2022-11-15T17:34:15;2.03;;;1.33;;
5785;SDS011;2919;48.630;9.000;2022-11-15T17:36:41;2.87;;;2.10;;
5785;SDS011;2919;48.630;9.000;2022-11-15T17:39:06;3.20;;;1.60;;
5785;SDS011;2919;48.630;9.000;2022-11-15T17:41:32;3.53;;;1.73;;
5785;SDS011;2919;48.630;9.000;2022-11-15T17:43:58;3.13;;;1.90;;
5785;SDS011;2919;48.630;9.000;2022-11-15T17:46:24;4.07;;;2.27;;
5785;SDS011;2919;48.630;9.000;2022-11-15T17:48:51;4.60;;;1.70;;
5785;SDS011;2919;48.630;9.000;2022-11-15T17:51:17;5.00;;;2.40;;
5785;SDS011;2919;48.630;9.000;2022-11-15T17:53:46;4.33;;;1.83;;
5785;SDS011;2919;48.630;9.000;2022-11-15T17:56:17;3.00;;;1.53;;
5785;SDS011;2919;48.630;9.000;2022-11-15T17:58:47;3.60;;;1.60;;
5785;SDS011;2919;48.630;9.000;2022-11-15T18:01:19;2.60;;;1.83;;
5785;SDS011;2919;48.630;9.000;2022-11-15T18:03:52;4.93;;;2.37;;
5785;SDS011;2919;48.630;9.000;2022-11-15T18:06:19;4.90;;;2.60;;
5785;SDS011;2919;48.630;9.000;2022-11-15T18:08:46;9.87;;;3.17;;
5785;SDS011;2919;48.630;9.000;2022-11-15T18:13:47;4.30;;;2.33;;
5785;SDS011;2919;48.630;9.000;2022-11-15T18:16:15;5.37;;;2.07;;